createdAt,value
2018-10-05T00:00:22.910Z,50.69
2018-10-05T00:02:49.232Z,50.76
2018-10-05T00:05:15.551Z,50.79
2018-10-05T00:07:41.872Z,51.00
2018-10-05T00:10:08.510Z,51.08
2018-10-05T00:12:34.954Z,51.04
2018-10-05T00:15:01.266Z,51.37
2018-10-05T00:17:27.582Z,51.53
2018-10-05T00:19:53.899Z,51.48
2018-10-05T00:22:20.261Z,51.71
2018-10-05T00:24:46.580Z,51.86
2018-10-05T00:27:12.900Z,51.68
2018-10-05T00:29:39.250Z,51.86
2018-10-05T00:32:05.576Z,51.53
2018-10-05T00:34:31.938Z,51.51
2018-10-05T00:36:58.261Z,51.41
2018-10-05T00:39:24.607Z,51.46
2018-10-05T00:41:50.972Z,51.65
2018-10-05T00:44:17.322Z,51.80
2018-10-05T00:46:43.643Z,51.94
2018-10-05T00:49:10.007Z,51.63
2018-10-05T00:51:36.345Z,51.62
2018-10-05T00:54:02.665Z,51.70
2018-10-05T00:56:29.057Z,52.19
2018-10-05T00:58:55.377Z,52.25
2018-10-05T01:01:21.717Z,51.90
2018-10-05T01:03:48.083Z,51.88
2018-10-05T01:06:14.424Z,52.23
2018-10-05T01:08:40.770Z,52.04
2018-10-05T01:11:07.176Z,52.50
2018-10-05T01:13:33.520Z,52.53
2018-10-05T01:15:59.840Z,52.88
2018-10-05T01:18:26.210Z,52.89
2018-10-05T01:20:52.553Z,52.89
2018-10-05T01:23:18.908Z,52.85
2018-10-05T01:25:45.293Z,52.75
2018-10-05T01:28:11.640Z,52.59
2018-10-05T01:30:38.013Z,53.03
2018-10-05T01:33:04.380Z,53.08
2018-10-05T01:35:30.709Z,53.07
2018-10-05T01:37:57.029Z,53.10
2018-10-05T01:40:23.395Z,53.17
2018-10-05T01:42:49.737Z,53.17
2018-10-05T01:45:16.056Z,53.46
2018-10-05T01:47:42.458Z,53.40
2018-10-05T01:50:08.770Z,53.38
2018-10-05T01:52:35.124Z,53.25
2018-10-05T01:55:01.509Z,53.29
2018-10-05T01:57:27.852Z,53.50
2018-10-05T01:59:54.194Z,53.50
2018-10-05T02:02:20.577Z,53.60
2018-10-05T02:04:46.893Z,53.50
2018-10-05T02:07:13.233Z,53.87
2018-10-05T02:09:39.654Z,53.90
2018-10-05T02:12:05.972Z,53.81
2018-10-05T02:14:32.418Z,53.86
2018-10-05T02:16:58.786Z,53.95
2018-10-05T02:19:25.128Z,54.11
2018-10-05T02:21:51.440Z,54.20
2018-10-05T02:24:17.836Z,54.25
2018-10-05T02:26:44.190Z,54.36
2018-10-05T02:29:10.533Z,54.52
2018-10-05T02:31:36.910Z,54.41
2018-10-05T02:34:03.249Z,54.47
2018-10-05T02:36:29.589Z,54.20
2018-10-05T02:38:55.948Z,54.49
2018-10-05T02:41:22.269Z,54.55
2018-10-05T02:43:48.614Z,54.75
2018-10-05T02:46:15.005Z,54.90
2018-10-05T02:48:41.349Z,55.05
2018-10-05T02:51:07.690Z,55.00
2018-10-05T02:53:34.119Z,55.12
2018-10-05T02:56:00.439Z,55.18
2018-10-05T02:58:26.753Z,55.28
2018-10-05T03:00:53.120Z,55.45
2018-10-05T03:03:19.437Z,55.48
2018-10-05T03:05:45.754Z,55.52
2018-10-05T03:08:12.142Z,55.51
2018-10-05T03:10:38.458Z,55.34
2018-10-05T03:13:04.803Z,55.48
2018-10-05T03:15:31.203Z,55.52
2018-10-05T03:17:57.546Z,55.60
2018-10-05T03:20:23.862Z,55.64
2018-10-05T03:22:50.235Z,55.90
2018-10-05T03:25:16.576Z,55.91
2018-10-05T03:27:42.922Z,56.01
2018-10-05T03:30:09.270Z,55.87
2018-10-05T03:32:35.614Z,55.82
2018-10-05T03:35:02.051Z,55.98
2018-10-05T03:37:28.398Z,56.09
2018-10-05T03:39:54.716Z,56.07
2018-10-05T03:42:21.092Z,56.00
2018-10-05T03:44:47.418Z,55.90
2018-10-05T03:47:13.734Z,55.73
2018-10-05T03:49:40.175Z,55.62
2018-10-05T03:52:06.455Z,55.62
2018-10-05T03:54:32.775Z,55.54
2018-10-05T03:56:59.133Z,55.40
2018-10-05T03:59:25.478Z,55.44
2018-10-05T04:01:51.825Z,55.42
2018-10-05T04:04:18.143Z,55.44
2018-10-05T04:06:44.491Z,55.60
2018-10-05T04:09:10.817Z,55.82
2018-10-05T04:11:37.159Z,55.95
2018-10-05T04:14:03.551Z,60.60
2018-10-05T04:16:29.892Z,61.55
2018-10-05T04:18:56.238Z,62.00
2018-10-05T04:21:22.564Z,62.74
2018-10-05T04:23:48.884Z,63.52
2018-10-05T04:26:15.244Z,63.16
2018-10-05T04:28:41.565Z,61.73
2018-10-05T04:31:07.911Z,60.64
2018-10-05T04:33:34.266Z,60.01
2018-10-05T04:36:00.592Z,60.83
2018-10-05T04:38:26.913Z,61.46
2018-10-05T04:40:53.294Z,61.90
2018-10-05T04:43:19.617Z,61.97
2018-10-05T04:45:46.002Z,62.13
2018-10-05T04:48:12.329Z,61.50
2018-10-05T04:50:38.809Z,61.17
2018-10-05T04:53:05.151Z,61.01
2018-10-05T04:55:31.499Z,61.34
2018-10-05T04:57:57.843Z,61.57
2018-10-05T05:00:24.789Z,61.55
2018-10-05T05:02:51.174Z,61.42
2018-10-05T05:05:17.610Z,61.77
2018-10-05T05:07:43.955Z,61.78
2018-10-05T05:10:10.394Z,62.64
2018-10-05T05:12:36.744Z,62.30
2018-10-05T05:15:03.061Z,62.44
2018-10-05T05:17:29.410Z,62.46
2018-10-05T05:19:56.051Z,62.70
2018-10-05T05:22:22.372Z,63.08
2018-10-05T05:24:48.693Z,62.79
2018-10-05T05:27:15.228Z,62.51
2018-10-05T05:29:41.556Z,62.74
2018-10-05T05:32:07.876Z,63.41
2018-10-05T05:34:34.296Z,62.62
2018-10-05T05:37:00.749Z,61.92
2018-10-05T05:39:27.074Z,62.85
2018-10-05T05:41:53.431Z,63.55
2018-10-05T05:44:19.758Z,63.62
2018-10-05T05:46:46.134Z,63.25
2018-10-05T05:49:12.832Z,62.84
2018-10-05T05:51:39.159Z,62.50
2018-10-05T05:54:05.540Z,62.93
2018-10-05T05:56:31.888Z,62.20
2018-10-05T05:58:58.229Z,62.37
2018-10-05T06:01:24.548Z,61.71
2018-10-05T06:03:50.938Z,61.74
2018-10-05T06:06:17.278Z,62.12
2018-10-05T06:08:43.625Z,61.29
2018-10-05T06:11:09.988Z,61.25
2018-10-05T06:13:36.308Z,61.42
2018-10-05T06:16:02.724Z,61.36
2018-10-05T06:18:29.012Z,60.77
2018-10-05T06:20:55.353Z,60.05
2018-10-05T06:23:22.287Z,60.29
2018-10-05T06:25:48.603Z,60.47
2018-10-05T06:28:14.921Z,60.58
2018-10-05T06:30:41.357Z,59.97
2018-10-05T06:33:07.631Z,60.16
2018-10-05T06:35:33.956Z,60.35
2018-10-05T06:38:00.347Z,59.94
2018-10-05T06:40:26.698Z,60.21
2018-10-05T06:42:53.065Z,59.59
2018-10-05T06:45:19.390Z,59.40
2018-10-05T06:47:45.733Z,59.09
2018-10-05T06:50:12.118Z,59.19
2018-10-05T06:52:38.467Z,59.83
2018-10-05T06:55:04.813Z,57.76
2018-10-05T06:57:31.198Z,57.66
2018-10-05T06:59:57.523Z,57.85
2018-10-05T07:02:23.843Z,57.38
2018-10-05T07:04:50.248Z,56.96
2018-10-05T07:07:16.570Z,57.10
2018-10-05T07:09:42.914Z,57.81
2018-10-05T07:12:09.284Z,55.95
2018-10-05T07:14:35.634Z,56.15
2018-10-05T07:17:02.004Z,56.46
2018-10-05T07:19:28.343Z,57.81
2018-10-05T07:21:54.720Z,57.22
2018-10-05T07:24:21.122Z,57.19
2018-10-05T07:26:47.440Z,57.65
2018-10-05T07:29:13.761Z,57.96
2018-10-05T07:31:40.135Z,55.87
2018-10-05T07:34:06.481Z,55.53
2018-10-05T07:36:32.822Z,53.34
2018-10-05T07:38:59.184Z,54.21
2018-10-05T07:41:25.510Z,53.35
2018-10-05T07:43:51.837Z,52.08
2018-10-05T07:46:18.182Z,51.55
2018-10-05T07:48:44.539Z,53.07
2018-10-05T07:51:10.951Z,52.24
2018-10-05T07:53:37.293Z,53.06
2018-10-05T07:56:03.639Z,51.82
2018-10-05T07:58:30.005Z,51.94
2018-10-05T08:00:56.356Z,52.91
2018-10-05T08:03:22.682Z,53.12
2018-10-05T08:05:49.009Z,52.65
2018-10-05T08:08:15.421Z,50.24
2018-10-05T08:10:41.815Z,49.86
2018-10-05T08:13:08.162Z,50.06
2018-10-05T08:15:34.522Z,49.68
2018-10-05T08:18:00.919Z,50.67
2018-10-05T08:20:27.267Z,50.83
2018-10-05T08:22:53.714Z,49.45
2018-10-05T08:25:20.082Z,49.90
2018-10-05T08:27:46.682Z,48.20
2018-10-05T08:30:12.756Z,47.54
2018-10-05T08:32:39.107Z,47.55
2018-10-05T08:35:05.454Z,47.30
2018-10-05T08:37:31.835Z,47.76
2018-10-05T08:39:58.295Z,47.46
2018-10-05T08:42:24.492Z,47.55
2018-10-05T08:44:50.887Z,48.35
2018-10-05T08:47:17.242Z,47.23
2018-10-05T08:49:43.592Z,45.96
2018-10-05T08:52:10.012Z,46.05
2018-10-05T08:54:36.266Z,45.58
2018-10-05T08:57:02.661Z,46.20
2018-10-05T08:59:29.007Z,45.62
2018-10-05T09:01:55.330Z,44.85
2018-10-05T09:04:21.723Z,45.35
2018-10-05T09:06:48.076Z,44.17
2018-10-05T09:09:14.397Z,43.97
2018-10-05T09:11:40.741Z,43.95
2018-10-05T09:14:07.068Z,42.88
2018-10-05T09:16:33.431Z,42.93
2018-10-05T09:18:59.754Z,42.34
2018-10-05T09:21:26.171Z,42.59
2018-10-05T09:23:52.509Z,42.20
2018-10-05T09:26:18.835Z,42.15
2018-10-05T09:28:45.256Z,41.71
2018-10-05T09:31:11.577Z,42.06
2018-10-05T09:33:37.968Z,43.21
2018-10-05T09:36:04.356Z,42.17
2018-10-05T09:38:30.709Z,40.70
2018-10-05T09:40:57.071Z,39.66
2018-10-05T09:43:23.437Z,40.38
2018-10-05T09:45:49.789Z,39.59
2018-10-05T09:48:16.139Z,38.95
2018-10-05T09:50:42.532Z,39.55
2018-10-05T09:53:08.876Z,43.92
2018-10-05T09:55:35.232Z,39.78
2018-10-05T09:58:01.610Z,39.84
2018-10-05T10:00:27.947Z,41.09
2018-10-05T10:02:54.295Z,43.85
2018-10-05T10:05:20.684Z,41.52
2018-10-05T10:07:47.081Z,38.53
2018-10-05T10:10:13.419Z,38.02
2018-10-05T10:12:39.774Z,37.33
2018-10-05T10:15:06.120Z,37.69
2018-10-05T10:17:32.451Z,41.66
2018-10-05T10:19:58.819Z,43.90
2018-10-05T10:22:25.161Z,42.08
2018-10-05T10:24:51.485Z,44.48
2018-10-05T10:27:17.843Z,40.65
2018-10-05T10:29:44.191Z,39.34
2018-10-05T10:32:10.889Z,42.89
2018-10-05T10:34:37.314Z,44.64
2018-10-05T10:37:03.655Z,44.52
2018-10-05T10:39:30.047Z,44.13
2018-10-05T10:41:56.394Z,43.68
2018-10-05T10:44:22.739Z,41.31
2018-10-05T10:46:49.111Z,42.43
2018-10-05T10:49:15.460Z,40.07
2018-10-05T10:51:41.784Z,41.67
2018-10-05T10:54:08.172Z,44.66
2018-10-05T10:56:34.429Z,45.11
2018-10-05T10:59:00.822Z,44.42
2018-10-05T11:01:27.171Z,42.12
2018-10-05T11:03:53.541Z,40.68
2018-10-05T11:06:19.871Z,38.94
2018-10-05T11:08:46.213Z,39.35
2018-10-05T11:11:12.794Z,42.06
2018-10-05T11:13:39.041Z,40.54
2018-10-05T11:16:05.365Z,40.80
2018-10-05T11:18:31.762Z,38.74
2018-10-05T11:20:58.114Z,37.34
2018-10-05T11:23:24.464Z,36.50
2018-10-05T11:25:50.781Z,36.50
2018-10-05T11:28:17.116Z,37.16
2018-10-05T11:30:43.449Z,37.06
2018-10-05T11:33:09.769Z,38.31
2018-10-05T11:35:36.132Z,37.10
2018-10-05T11:38:02.457Z,36.50
2018-10-05T11:40:28.809Z,36.42
2018-10-05T11:42:55.312Z,36.27
2018-10-05T11:45:21.657Z,37.38
2018-10-05T11:47:48.010Z,37.37
2018-10-05T11:50:14.394Z,37.36
2018-10-05T11:52:40.758Z,37.30
2018-10-05T11:55:07.105Z,36.65
2018-10-05T11:57:33.493Z,36.16
2018-10-05T11:59:59.813Z,36.32
2018-10-05T12:02:26.215Z,34.52
2018-10-05T12:04:52.511Z,34.79
2018-10-05T12:07:18.859Z,35.45
2018-10-05T12:09:45.230Z,34.72
2018-10-05T12:12:11.552Z,35.67
2018-10-05T12:14:37.897Z,35.66
2018-10-05T12:17:04.257Z,35.80
2018-10-05T12:19:30.582Z,34.47
2018-10-05T12:21:56.901Z,35.14
2018-10-05T12:24:23.285Z,35.27
2018-10-05T12:26:49.630Z,34.53
2018-10-05T12:29:15.980Z,35.76
2018-10-05T12:31:42.478Z,36.32
2018-10-05T12:34:08.822Z,37.26
2018-10-05T12:36:35.147Z,35.90
2018-10-05T12:39:01.510Z,35.38
2018-10-05T12:41:27.854Z,35.13
2018-10-05T12:43:54.199Z,35.93
2018-10-05T12:46:20.583Z,36.00
2018-10-05T12:48:46.923Z,37.29
2018-10-05T12:51:13.263Z,38.44
2018-10-05T12:53:39.726Z,36.91
2018-10-05T12:56:06.073Z,38.17
2018-10-05T12:58:32.491Z,38.82
2018-10-05T13:00:58.837Z,35.95
2018-10-05T13:03:25.162Z,34.95
2018-10-05T13:05:51.535Z,34.38
2018-10-05T13:08:17.869Z,34.57
2018-10-05T13:10:44.220Z,34.63
2018-10-05T13:13:10.587Z,34.85
2018-10-05T13:15:36.930Z,34.85
2018-10-05T13:18:03.254Z,35.33
2018-10-05T13:20:29.624Z,35.81
2018-10-05T13:22:56.005Z,36.20
2018-10-05T13:25:22.332Z,36.71
2018-10-05T13:27:48.770Z,35.42
2018-10-05T13:30:15.091Z,34.86
2018-10-05T13:32:41.436Z,34.55
2018-10-05T13:35:07.764Z,35.80
2018-10-05T13:37:34.188Z,36.21
2018-10-05T13:40:00.570Z,35.87
2018-10-05T13:42:26.954Z,35.47
2018-10-05T13:44:53.314Z,35.63
2018-10-05T13:47:19.655Z,35.72
2018-10-05T13:49:46.003Z,35.04
2018-10-05T13:52:12.334Z,35.08
2018-10-05T13:54:38.687Z,35.56
2018-10-05T13:57:05.029Z,35.34
2018-10-05T13:59:31.355Z,35.61
2018-10-05T14:01:57.709Z,36.68
2018-10-05T14:04:24.057Z,36.10
2018-10-05T14:06:50.468Z,36.52
2018-10-05T14:09:16.767Z,35.68
2018-10-05T14:11:43.093Z,35.96
2018-10-05T14:14:09.460Z,35.43
2018-10-05T14:16:35.766Z,36.40
2018-10-05T14:19:02.121Z,36.76
2018-10-05T14:21:28.414Z,36.63
2018-10-05T14:23:54.736Z,36.86
2018-10-05T14:26:21.116Z,36.17
2018-10-05T14:28:47.452Z,36.24
2018-10-05T14:31:13.780Z,37.04
2018-10-05T14:33:40.171Z,36.26
2018-10-05T14:36:06.461Z,35.73
2018-10-05T14:38:32.784Z,35.85
2018-10-05T14:40:59.186Z,35.85
2018-10-05T14:43:25.523Z,35.90
2018-10-05T14:45:51.943Z,36.32
2018-10-05T14:48:18.253Z,36.26
2018-10-05T14:50:44.579Z,36.28
2018-10-05T14:53:10.921Z,36.53
2018-10-05T14:55:37.268Z,36.78
2018-10-05T14:58:03.607Z,37.14
2018-10-05T15:00:29.931Z,36.56
2018-10-05T15:02:56.252Z,37.17
2018-10-05T15:05:22.603Z,38.88
2018-10-05T15:07:48.940Z,39.17
2018-10-05T15:10:15.259Z,38.83
2018-10-05T15:12:41.660Z,38.00
2018-10-05T15:15:07.967Z,38.88
2018-10-05T15:17:34.297Z,39.88
2018-10-05T15:20:00.681Z,39.42
2018-10-05T15:22:27.028Z,39.01
2018-10-05T15:24:53.342Z,39.84
2018-10-05T15:27:19.698Z,40.30
2018-10-05T15:29:46.044Z,40.37
2018-10-05T15:32:12.358Z,39.74
2018-10-05T15:34:38.718Z,39.23
2018-10-05T15:37:05.338Z,39.92
2018-10-05T15:39:31.655Z,40.11
2018-10-05T15:41:58.009Z,40.32
2018-10-05T15:44:24.351Z,40.60
2018-10-05T15:46:50.670Z,38.72
2018-10-05T15:49:16.990Z,38.69
2018-10-05T15:51:43.346Z,38.22
2018-10-05T15:54:09.664Z,38.66
2018-10-05T15:56:35.986Z,39.41
2018-10-05T15:59:02.464Z,39.58
2018-10-05T16:01:28.731Z,39.80
2018-10-05T16:03:55.053Z,39.83
2018-10-05T16:06:21.434Z,39.91
2018-10-05T16:08:47.774Z,39.55
2018-10-05T16:11:14.114Z,39.79
2018-10-05T16:13:40.493Z,39.88
2018-10-05T16:16:06.837Z,39.36
2018-10-05T16:18:33.178Z,40.05
2018-10-05T16:20:59.620Z,39.62
2018-10-05T16:23:25.875Z,39.28
2018-10-05T16:25:52.217Z,39.52
2018-10-05T16:28:18.576Z,39.76
2018-10-05T16:30:44.895Z,40.30
2018-10-05T16:33:11.238Z,40.43
2018-10-05T16:35:37.603Z,40.42
2018-10-05T16:38:03.944Z,40.23
2018-10-05T16:40:30.284Z,40.39
2018-10-05T16:42:56.644Z,40.44
2018-10-05T16:45:22.985Z,40.88
2018-10-05T16:47:49.317Z,40.70
2018-10-05T16:50:15.691Z,41.20
2018-10-05T16:52:42.015Z,40.64
2018-10-05T16:55:08.357Z,41.33
2018-10-05T16:57:34.770Z,41.46
2018-10-05T17:00:01.126Z,40.71
2018-10-05T17:02:27.441Z,41.63
2018-10-05T17:04:53.803Z,41.50
2018-10-05T17:07:20.142Z,41.42
2018-10-05T17:09:46.460Z,41.69
2018-10-05T17:12:12.939Z,41.18
2018-10-05T17:14:39.173Z,41.67
2018-10-05T17:17:05.523Z,41.01
2018-10-05T17:19:31.946Z,41.53
2018-10-05T17:21:58.289Z,41.63
2018-10-05T17:24:24.635Z,41.32
2018-10-05T17:26:51.010Z,41.48
2018-10-05T17:29:17.339Z,41.61
2018-10-05T17:31:43.649Z,41.93
2018-10-05T17:34:10.138Z,42.00
2018-10-05T17:36:36.457Z,42.29
2018-10-05T17:39:02.799Z,42.30
2018-10-05T17:41:29.181Z,41.79
2018-10-05T17:43:55.521Z,44.42
2018-10-05T17:46:21.884Z,42.93
2018-10-05T17:48:48.204Z,42.82
2018-10-05T17:51:14.524Z,43.04
2018-10-05T17:53:40.844Z,42.84
2018-10-05T17:56:07.237Z,42.83
2018-10-05T17:58:33.542Z,42.89
2018-10-05T18:00:59.862Z,42.67
2018-10-05T18:03:26.180Z,43.15
2018-10-05T18:05:52.576Z,42.87
2018-10-05T18:08:18.978Z,42.93
2018-10-05T18:10:45.290Z,43.38
2018-10-05T18:13:11.658Z,43.39
2018-10-05T18:15:37.996Z,43.58
2018-10-05T18:18:04.319Z,43.86
2018-10-05T18:20:30.718Z,43.90
2018-10-05T18:22:57.042Z,43.77
2018-10-05T18:25:23.390Z,43.65
2018-10-05T18:27:49.775Z,43.79
2018-10-05T18:30:16.101Z,43.73
2018-10-05T18:32:42.448Z,43.92
2018-10-05T18:35:08.774Z,43.88
2018-10-05T18:37:35.097Z,44.26
2018-10-05T18:40:01.444Z,44.14
2018-10-05T18:42:28.133Z,43.86
2018-10-05T18:44:54.476Z,47.28
2018-10-05T18:47:20.894Z,46.85
2018-10-05T18:49:47.833Z,46.04
2018-10-05T18:52:14.177Z,45.47
2018-10-05T18:54:40.529Z,45.64
2018-10-05T18:57:06.920Z,45.40
2018-10-05T18:59:33.258Z,45.61
2018-10-05T19:02:00.810Z,45.81
2018-10-05T19:04:25.876Z,45.97
2018-10-05T19:06:52.436Z,46.22
2018-10-05T19:09:18.788Z,45.97
2018-10-05T19:11:45.119Z,46.15
2018-10-05T19:14:11.594Z,46.02
2018-10-05T19:16:37.916Z,46.29
2018-10-05T19:19:04.255Z,46.44
2018-10-05T19:21:30.593Z,46.60
2018-10-05T19:23:56.973Z,46.57
2018-10-05T19:26:23.439Z,46.38
2018-10-05T19:28:49.729Z,46.77
2018-10-05T19:31:16.004Z,46.66
2018-10-05T19:33:42.335Z,47.09
2018-10-05T19:36:08.784Z,47.30
2018-10-05T19:38:35.174Z,47.14
2018-10-05T19:41:03.062Z,46.94
2018-10-05T19:43:28.214Z,47.13
2018-10-05T19:45:54.534Z,47.19
2018-10-05T19:48:20.821Z,46.83
2018-10-05T19:50:47.152Z,46.96
2018-10-05T19:53:13.531Z,47.06
2018-10-05T19:55:39.843Z,47.24
2018-10-05T19:58:06.162Z,47.21
2018-10-05T20:00:32.482Z,47.23
2018-10-05T20:02:58.828Z,47.37
2018-10-05T20:05:25.145Z,47.55
2018-10-05T20:07:52.851Z,47.49
2018-10-05T20:10:17.988Z,47.79
2018-10-05T20:12:44.342Z,47.71
2018-10-05T20:15:10.727Z,47.88
2018-10-05T20:17:37.045Z,47.97
2018-10-05T20:20:03.361Z,47.88
2018-10-05T20:22:29.745Z,48.13
2018-10-05T20:24:56.086Z,47.92
2018-10-05T20:27:22.423Z,47.69
2018-10-05T20:29:48.782Z,47.50
2018-10-05T20:32:15.103Z,47.63
2018-10-05T20:34:41.414Z,47.84
2018-10-05T20:37:07.860Z,47.83
2018-10-05T20:39:34.090Z,47.74
2018-10-05T20:42:00.428Z,47.59
2018-10-05T20:44:26.880Z,47.86
2018-10-05T20:46:53.135Z,47.65
2018-10-05T20:49:19.460Z,47.97
2018-10-05T20:51:45.902Z,47.61
2018-10-05T20:54:12.233Z,48.04
2018-10-05T20:56:38.557Z,48.15
2018-10-05T20:59:04.926Z,48.49
2018-10-05T21:01:31.269Z,48.27
2018-10-05T21:03:57.591Z,48.05
2018-10-05T21:06:23.979Z,48.20
2018-10-05T21:08:50.324Z,48.28
2018-10-05T21:11:16.638Z,48.36
2018-10-05T21:13:43.097Z,48.45
2018-10-05T21:16:09.431Z,48.27
2018-10-05T21:18:35.776Z,48.59
2018-10-05T21:21:02.152Z,48.51
2018-10-05T21:23:28.518Z,48.61
2018-10-05T21:25:54.855Z,48.59
2018-10-05T21:28:21.235Z,48.70
2018-10-05T21:30:47.563Z,48.61
2018-10-05T21:33:13.967Z,48.64
2018-10-05T21:35:40.271Z,48.54
2018-10-05T21:38:06.590Z,48.55
2018-10-05T21:40:32.916Z,48.51
2018-10-05T21:42:59.299Z,48.60
2018-10-05T21:45:25.629Z,48.56
2018-10-05T21:47:51.952Z,48.66
2018-10-05T21:50:18.308Z,48.52
2018-10-05T21:52:44.626Z,48.50
2018-10-05T21:55:10.949Z,48.48
2018-10-05T21:57:37.325Z,48.69
2018-10-05T22:00:03.655Z,48.60
2018-10-05T22:02:29.974Z,48.63
2018-10-05T22:04:56.358Z,48.66
2018-10-05T22:07:22.707Z,48.47
2018-10-05T22:09:49.023Z,48.59
2018-10-05T22:12:15.343Z,48.88
2018-10-05T22:14:41.668Z,48.88
2018-10-05T22:17:08.346Z,48.87
2018-10-05T22:19:34.770Z,48.78
2018-10-05T22:22:01.074Z,48.94
2018-10-05T22:24:27.448Z,48.83
2018-10-05T22:26:53.768Z,48.84
2018-10-05T22:29:20.084Z,49.02
2018-10-05T22:31:46.475Z,49.08
2018-10-05T22:34:12.827Z,49.00
2018-10-05T22:36:39.175Z,49.09
2018-10-05T22:39:05.648Z,49.15
2018-10-05T22:41:31.982Z,49.12
2018-10-05T22:43:58.322Z,49.24
2018-10-05T22:46:24.672Z,49.43
2018-10-05T22:48:51.012Z,49.32
2018-10-05T22:51:17.461Z,49.49
2018-10-05T22:53:43.803Z,49.54
2018-10-05T22:56:10.186Z,49.63
2018-10-05T22:58:36.528Z,49.85
2018-10-05T23:01:02.868Z,50.09
2018-10-05T23:03:29.249Z,49.83
2018-10-05T23:05:55.595Z,49.99
2018-10-05T23:08:21.935Z,49.86
2018-10-05T23:10:48.313Z,49.82
2018-10-05T23:13:14.655Z,50.03
2018-10-05T23:15:40.997Z,50.27
2018-10-05T23:18:07.420Z,50.21
2018-10-05T23:20:33.764Z,50.11
2018-10-05T23:23:00.098Z,50.41
2018-10-05T23:25:26.819Z,50.51
2018-10-05T23:27:53.156Z,50.65
2018-10-05T23:30:19.500Z,50.60
2018-10-05T23:32:45.884Z,50.59
2018-10-05T23:35:12.225Z,50.55
2018-10-05T23:37:38.567Z,50.58
2018-10-05T23:40:04.944Z,50.81
2018-10-05T23:42:31.288Z,50.60
2018-10-05T23:44:57.639Z,50.66
2018-10-05T23:47:24.024Z,50.65
2018-10-05T23:49:50.365Z,50.96
2018-10-05T23:52:16.704Z,50.86
2018-10-05T23:54:43.107Z,50.88
2018-10-05T23:57:09.465Z,51.12
2018-10-05T23:59:35.817Z,51.23
